createdAt,value
2024-01-16T00:00:05.676Z,9.20
2024-01-16T00:02:33.678Z,10.07
2024-01-16T00:05:03.748Z,10.07
2024-01-16T00:07:34.084Z,8.23
2024-01-16T00:10:05.071Z,11.60
2024-01-16T00:12:32.978Z,10.20
2024-01-16T00:15:00.589Z,11.73
2024-01-16T00:17:28.254Z,9.37
2024-01-16T00:19:55.854Z,10.73
2024-01-16T00:22:25.660Z,12.80
2024-01-16T00:24:53.264Z,13.30
2024-01-16T00:27:20.888Z,10.43
2024-01-16T00:29:49.180Z,10.63
2024-01-16T00:32:17.615Z,10.57
2024-01-16T00:34:45.177Z,10.20
2024-01-16T00:37:13.095Z,10.40
2024-01-16T00:39:42.164Z,7.97
2024-01-16T00:42:10.412Z,9.80
2024-01-16T00:44:38.107Z,11.17
2024-01-16T00:47:06.759Z,11.50
2024-01-16T00:49:34.558Z,10.60
2024-01-16T00:52:02.135Z,13.03
2024-01-16T00:54:29.741Z,11.03
2024-01-16T00:57:01.014Z,12.87
2024-01-16T00:59:29.127Z,16.93
2024-01-16T01:01:56.913Z,14.97
2024-01-16T01:04:24.832Z,10.77
2024-01-16T01:06:52.378Z,13.57
2024-01-16T01:09:20.331Z,13.10
2024-01-16T01:11:48.095Z,12.70
2024-01-16T01:14:17.370Z,15.73
2024-01-16T01:16:45.066Z,13.47
2024-01-16T01:19:14.021Z,12.80
2024-01-16T01:21:42.227Z,13.33
2024-01-16T01:24:10.134Z,12.33
2024-01-16T01:26:37.823Z,12.30
2024-01-16T01:29:05.571Z,15.17
2024-01-16T01:31:34.879Z,12.27
2024-01-16T01:34:02.745Z,13.07
2024-01-16T01:36:30.430Z,14.60
2024-01-16T01:38:58.023Z,11.97
2024-01-16T01:41:25.698Z,16.33
2024-01-16T01:43:53.776Z,11.20
2024-01-16T01:46:21.381Z,14.90
2024-01-16T01:48:50.544Z,9.97
2024-01-16T01:51:20.026Z,12.30
2024-01-16T01:53:50.843Z,10.83
2024-01-16T01:56:20.212Z,11.87
2024-01-16T01:58:48.997Z,11.03
2024-01-16T02:01:17.143Z,15.07
2024-01-16T02:03:45.668Z,13.93
2024-01-16T02:06:16.367Z,11.23
2024-01-16T02:08:44.812Z,16.03
2024-01-16T02:11:12.568Z,16.27
2024-01-16T02:13:40.305Z,12.50
2024-01-16T02:16:18.883Z,13.20
2024-01-16T02:18:46.766Z,12.20
2024-01-16T02:21:17.641Z,12.23
2024-01-16T02:23:47.165Z,14.93
2024-01-16T02:26:15.435Z,15.03
2024-01-16T02:28:43.690Z,13.90
2024-01-16T02:31:11.928Z,16.53
2024-01-16T02:33:40.005Z,17.13
2024-01-16T02:36:07.893Z,14.60
2024-01-16T02:38:35.659Z,15.10
2024-01-16T02:41:05.945Z,14.27
2024-01-16T02:43:33.733Z,16.90
2024-01-16T02:46:01.778Z,12.90
2024-01-16T02:48:29.517Z,15.73
2024-01-16T02:50:57.151Z,18.27
2024-01-16T02:53:26.696Z,14.93
2024-01-16T02:55:55.366Z,16.73
2024-01-16T02:58:24.349Z,18.30
2024-01-16T03:00:54.343Z,15.53
2024-01-16T03:03:22.352Z,16.87
2024-01-16T03:05:50.771Z,16.37
2024-01-16T03:08:18.867Z,19.43
2024-01-16T03:10:46.481Z,16.33
2024-01-16T03:13:14.694Z,17.43
2024-01-16T03:15:44.283Z,21.23
2024-01-16T03:18:12.741Z,20.03
2024-01-16T03:20:40.567Z,20.60
2024-01-16T03:23:08.483Z,20.13
2024-01-16T03:25:40.109Z,20.63
2024-01-16T03:28:09.140Z,19.60
2024-01-16T03:30:37.067Z,18.47
2024-01-16T03:33:06.752Z,18.70
2024-01-16T03:35:34.950Z,20.27
2024-01-16T03:38:02.553Z,19.60
2024-01-16T03:40:35.097Z,21.77
2024-01-16T03:43:02.883Z,22.90
2024-01-16T03:45:32.575Z,21.70
2024-01-16T03:48:01.294Z,23.33
2024-01-16T03:50:30.724Z,25.60
2024-01-16T03:52:58.451Z,26.70
2024-01-16T03:55:26.729Z,25.60
2024-01-16T03:57:54.341Z,24.53
2024-01-16T04:00:22.066Z,25.37
2024-01-16T04:02:49.817Z,24.50
2024-01-16T04:05:17.620Z,23.47
2024-01-16T04:07:46.606Z,21.37
2024-01-16T04:10:14.512Z,22.30
2024-01-16T04:12:42.050Z,22.40
2024-01-16T04:15:10.553Z,22.50
2024-01-16T04:17:38.215Z,21.13
2024-01-16T04:20:08.043Z,26.10
2024-01-16T04:22:35.741Z,24.77
2024-01-16T04:25:06.049Z,22.23
2024-01-16T04:27:34.022Z,24.10
2024-01-16T04:30:01.846Z,20.67
2024-01-16T04:32:30.119Z,23.47
2024-01-16T04:34:57.825Z,21.83
2024-01-16T04:37:25.894Z,20.80
2024-01-16T04:39:54.737Z,23.43
2024-01-16T04:42:23.798Z,22.90
2024-01-16T04:44:51.643Z,24.57
2024-01-16T04:47:19.289Z,26.13
2024-01-16T04:49:47.398Z,22.80
2024-01-16T04:52:16.688Z,27.83
2024-01-16T04:54:46.569Z,21.80
2024-01-16T04:57:14.152Z,24.90
2024-01-16T04:59:43.806Z,24.17
2024-01-16T05:02:11.901Z,22.77
2024-01-16T05:04:40.065Z,23.13
2024-01-16T05:07:07.907Z,20.37
2024-01-16T05:09:35.555Z,21.93
2024-01-16T05:12:03.770Z,24.27
2024-01-16T05:14:31.473Z,21.03
2024-01-16T05:17:00.796Z,22.53
2024-01-16T05:19:28.524Z,18.07
2024-01-16T05:21:56.731Z,21.87
2024-01-16T05:24:24.667Z,22.20
2024-01-16T05:26:51.642Z,20.73
2024-01-16T05:29:20.003Z,21.93
2024-01-16T05:31:47.727Z,19.83
2024-01-16T05:34:17.372Z,24.07
2024-01-16T05:36:45.170Z,27.37
2024-01-16T05:39:12.867Z,22.60
2024-01-16T05:41:41.014Z,20.07
2024-01-16T05:44:08.611Z,21.37
2024-01-16T05:46:36.369Z,20.77
2024-01-16T05:49:04.877Z,21.63
2024-01-16T05:51:34.109Z,19.50
2024-01-16T05:54:01.865Z,20.13
2024-01-16T05:56:29.811Z,19.23
2024-01-16T05:58:57.375Z,18.00
2024-01-16T06:01:25.020Z,17.07
2024-01-16T06:03:52.918Z,15.57
2024-01-16T06:06:21.330Z,15.23
2024-01-16T06:08:50.478Z,14.43
2024-01-16T06:11:18.906Z,13.57
2024-01-16T06:13:47.358Z,12.90
2024-01-16T06:16:14.955Z,14.37
2024-01-16T06:18:44.690Z,12.67
2024-01-16T06:21:13.436Z,14.03
2024-01-16T06:23:41.345Z,9.83
2024-01-16T06:26:11.017Z,10.37
2024-01-16T06:28:38.825Z,12.50
2024-01-16T06:31:06.920Z,11.43
2024-01-16T06:33:35.450Z,8.63
2024-01-16T06:36:05.147Z,11.00
2024-01-16T06:38:32.998Z,7.90
2024-01-16T06:41:01.744Z,7.47
2024-01-16T06:43:31.457Z,10.00
2024-01-16T06:45:59.847Z,9.57
2024-01-16T06:48:28.399Z,9.93
2024-01-16T06:50:56.634Z,7.23
2024-01-16T06:53:24.341Z,7.47
2024-01-16T06:55:51.928Z,5.87
2024-01-16T06:58:19.594Z,7.33
2024-01-16T07:00:48.721Z,4.07
2024-01-16T07:03:16.457Z,5.47
2024-01-16T07:05:44.777Z,4.33
2024-01-16T07:08:12.468Z,5.07
2024-01-16T07:10:40.196Z,3.67
2024-01-16T07:13:08.549Z,4.13
2024-01-16T07:15:36.701Z,6.20
2024-01-16T07:18:05.940Z,4.87
2024-01-16T07:20:34.275Z,4.73
2024-01-16T07:23:02.908Z,4.70
2024-01-16T07:25:30.446Z,6.47
2024-01-16T07:27:58.074Z,5.20
2024-01-16T07:30:25.656Z,6.40
2024-01-16T07:32:53.403Z,7.23
2024-01-16T07:35:22.448Z,7.90
2024-01-16T07:37:50.081Z,9.50
2024-01-16T07:40:18.209Z,8.20
2024-01-16T07:42:45.755Z,7.03
2024-01-16T07:45:13.396Z,4.63
2024-01-16T07:47:41.053Z,8.70
2024-01-16T07:50:09.164Z,4.33
2024-01-16T07:52:38.139Z,6.70
2024-01-16T07:55:06.584Z,8.10
2024-01-16T07:57:34.436Z,4.77
2024-01-16T08:00:02.247Z,5.23
2024-01-16T08:02:34.225Z,4.80
2024-01-16T08:05:01.864Z,6.07
2024-01-16T08:07:29.395Z,6.20
2024-01-16T08:09:58.397Z,6.00
2024-01-16T08:12:26.569Z,6.60
2024-01-16T08:14:54.221Z,6.07
2024-01-16T08:17:21.888Z,5.03
2024-01-16T08:19:49.575Z,6.47
2024-01-16T08:22:17.182Z,6.33
2024-01-16T08:24:44.981Z,11.27
2024-01-16T08:27:14.092Z,9.40
2024-01-16T08:29:41.908Z,5.80
2024-01-16T08:32:10.193Z,8.07
2024-01-16T08:34:38.022Z,6.63
2024-01-16T08:37:05.926Z,5.40
2024-01-16T08:39:35.191Z,7.20
2024-01-16T08:42:04.206Z,6.03
2024-01-16T08:44:33.173Z,7.50
2024-01-16T08:47:03.222Z,5.93
2024-01-16T08:49:33.014Z,6.20
2024-01-16T08:52:00.894Z,8.57
2024-01-16T08:54:28.750Z,6.33
2024-01-16T08:56:56.404Z,7.57
2024-01-16T08:59:24.851Z,6.40
2024-01-16T09:01:53.815Z,5.33
2024-01-16T09:04:21.404Z,5.63
2024-01-16T09:06:49.172Z,8.73
2024-01-16T09:09:17.378Z,7.23
2024-01-16T09:11:45.361Z,5.53
2024-01-16T09:14:12.999Z,10.10
2024-01-16T09:16:41.755Z,7.97
2024-01-16T09:19:11.398Z,5.70
2024-01-16T09:21:39.137Z,6.17
2024-01-16T09:24:06.913Z,5.60
2024-01-16T09:26:34.793Z,7.23
2024-01-16T09:29:02.483Z,7.23
2024-01-16T09:31:30.179Z,7.50
2024-01-16T09:33:57.921Z,8.70
2024-01-16T09:36:26.854Z,7.53
2024-01-16T09:38:54.674Z,7.90
2024-01-16T09:41:22.302Z,6.53
2024-01-16T09:43:50.110Z,8.03
2024-01-16T09:46:17.984Z,6.33
2024-01-16T09:48:47.448Z,7.63
2024-01-16T09:51:15.588Z,7.33
2024-01-16T09:53:44.902Z,9.70
2024-01-16T09:56:16.072Z,8.63
2024-01-16T09:58:44.999Z,12.30
2024-01-16T10:01:13.690Z,6.40
2024-01-16T10:03:43.448Z,6.23
2024-01-16T10:06:12.696Z,8.50
2024-01-16T10:08:41.367Z,11.23
2024-01-16T10:11:10.772Z,9.57
2024-01-16T10:13:38.848Z,8.40
2024-01-16T10:16:06.592Z,9.60
2024-01-16T10:18:35.109Z,9.97
2024-01-16T10:21:03.032Z,7.47
2024-01-16T10:23:31.265Z,9.10
2024-01-16T10:26:16.911Z,6.27
2024-01-16T10:28:45.853Z,5.20
2024-01-16T10:31:15.235Z,8.73
2024-01-16T10:33:43.183Z,6.90
2024-01-16T10:36:13.154Z,6.53
2024-01-16T10:38:41.262Z,8.93
2024-01-16T10:41:11.232Z,7.83
2024-01-16T10:43:39.009Z,9.67
2024-01-16T10:46:12.910Z,11.23
2024-01-16T10:48:41.840Z,9.30
2024-01-16T10:51:10.403Z,7.60
2024-01-16T10:53:39.507Z,7.50
2024-01-16T10:56:11.834Z,8.07
2024-01-16T10:58:41.092Z,7.67
2024-01-16T11:01:12.111Z,11.30
2024-01-16T11:03:42.746Z,6.13
2024-01-16T11:06:12.831Z,9.53
2024-01-16T11:08:41.392Z,9.80
2024-01-16T11:11:09.889Z,9.17
2024-01-16T11:13:38.234Z,11.77
2024-01-16T11:16:08.032Z,9.93
2024-01-16T11:18:37.183Z,7.70
2024-01-16T11:21:10.921Z,8.07
2024-01-16T11:23:41.059Z,8.80
2024-01-16T11:26:24.796Z,7.40
2024-01-16T11:28:52.763Z,6.83
2024-01-16T11:31:29.588Z,5.30
2024-01-16T11:33:57.872Z,10.27
2024-01-16T11:36:44.118Z,6.47
2024-01-16T11:39:18.518Z,8.03
2024-01-16T11:41:56.291Z,8.13
2024-01-16T11:44:41.093Z,9.10
2024-01-16T11:47:09.951Z,5.27
2024-01-16T11:49:37.800Z,8.33
2024-01-16T11:52:06.458Z,9.23
2024-01-16T11:54:36.060Z,7.93
2024-01-16T11:57:10.992Z,9.23
2024-01-16T11:59:53.785Z,6.67
2024-01-16T12:02:23.429Z,7.00
2024-01-16T12:04:55.221Z,9.20
2024-01-16T12:07:22.917Z,6.73
2024-01-16T12:09:51.872Z,9.23
2024-01-16T12:12:22.294Z,5.37
2024-01-16T12:14:53.548Z,8.17
2024-01-16T12:17:21.558Z,5.93
2024-01-16T12:19:51.910Z,6.53
2024-01-16T12:22:22.450Z,13.00
2024-01-16T12:24:50.191Z,6.60
2024-01-16T12:27:19.253Z,9.83
2024-01-16T12:29:46.923Z,7.73
2024-01-16T12:32:16.002Z,6.40
2024-01-16T12:34:50.909Z,6.53
2024-01-16T12:37:21.360Z,8.47
2024-01-16T12:39:49.001Z,6.67
2024-01-16T12:42:16.739Z,7.33
2024-01-16T12:44:47.623Z,12.80
2024-01-16T12:47:17.107Z,8.63
2024-01-16T12:49:45.409Z,7.23
2024-01-16T12:52:20.261Z,7.93
2024-01-16T12:54:47.927Z,8.37
2024-01-16T12:57:20.717Z,4.97
2024-01-16T12:59:50.907Z,6.77
2024-01-16T13:02:23.065Z,12.90
2024-01-16T13:04:58.152Z,6.60
2024-01-16T13:07:26.909Z,9.17
2024-01-16T13:10:07.825Z,7.80
2024-01-16T13:12:36.657Z,10.23
2024-01-16T13:15:07.026Z,5.10
2024-01-16T13:17:36.158Z,4.57
2024-01-16T13:20:05.725Z,5.13
2024-01-16T13:22:40.824Z,4.00
2024-01-16T13:25:12.826Z,4.97
2024-01-16T13:27:40.504Z,7.93
2024-01-16T13:30:11.111Z,7.10
2024-01-16T13:32:41.043Z,5.13
2024-01-16T13:35:10.060Z,6.27
2024-01-16T13:37:41.887Z,5.50
2024-01-16T13:40:12.437Z,6.40
2024-01-16T13:42:40.808Z,6.20
2024-01-16T13:45:10.762Z,8.97
2024-01-16T13:47:40.632Z,4.10
2024-01-16T13:50:08.978Z,5.97
2024-01-16T13:52:36.843Z,5.60
2024-01-16T13:55:09.110Z,6.07
2024-01-16T13:57:37.397Z,6.57
2024-01-16T14:00:05.550Z,5.17
2024-01-16T14:02:42.065Z,9.83
2024-01-16T14:05:11.958Z,5.53
2024-01-16T14:07:39.980Z,7.50
2024-01-16T14:10:08.904Z,6.83
2024-01-16T14:12:37.942Z,10.73
2024-01-16T14:15:16.970Z,8.90
2024-01-16T14:17:46.240Z,7.80
2024-01-16T14:20:14.219Z,9.03
2024-01-16T14:22:42.562Z,9.10
2024-01-16T14:25:12.444Z,7.27
2024-01-16T14:27:41.061Z,5.60
2024-01-16T14:30:11.774Z,8.37
2024-01-16T14:32:40.070Z,7.03
2024-01-16T14:35:10.613Z,6.73
2024-01-16T14:37:38.605Z,10.33
2024-01-16T14:40:13.467Z,9.17
2024-01-16T14:42:48.121Z,4.90
2024-01-16T14:45:16.808Z,7.97
2024-01-16T14:47:43.865Z,4.90
2024-01-16T14:50:13.927Z,4.90
2024-01-16T14:52:42.271Z,8.57
2024-01-16T14:55:09.915Z,7.07
2024-01-16T14:57:42.850Z,5.33
2024-01-16T15:00:15.921Z,6.63
2024-01-16T15:02:43.621Z,8.53
2024-01-16T15:05:13.956Z,6.73
2024-01-16T15:07:41.737Z,8.43
2024-01-16T15:10:10.465Z,7.40
2024-01-16T15:12:38.061Z,7.07
2024-01-16T15:15:06.610Z,10.33
2024-01-16T15:17:34.505Z,5.87
2024-01-16T15:20:02.512Z,7.67
2024-01-16T15:22:32.873Z,5.70
2024-01-16T15:25:00.471Z,5.10
2024-01-16T15:27:28.041Z,6.80
2024-01-16T15:29:57.107Z,5.20
2024-01-16T15:32:25.046Z,5.00
2024-01-16T15:34:52.800Z,5.33
2024-01-16T15:37:20.405Z,6.80
2024-01-16T15:39:49.408Z,7.33
2024-01-16T15:42:18.556Z,7.40
2024-01-16T15:44:46.237Z,7.37
2024-01-16T15:47:14.160Z,9.43
2024-01-16T15:49:41.856Z,7.93
2024-01-16T15:52:09.596Z,10.30
2024-01-16T15:54:38.161Z,4.87
2024-01-16T15:57:07.345Z,9.13
2024-01-16T15:59:34.962Z,7.57
2024-01-16T16:02:04.221Z,7.13
2024-01-16T16:04:33.246Z,6.17
2024-01-16T16:07:01.708Z,7.47
2024-01-16T16:09:30.062Z,6.17
2024-01-16T16:11:58.152Z,8.47
2024-01-16T16:14:29.820Z,6.30
2024-01-16T16:16:59.356Z,6.93
2024-01-16T16:19:27.262Z,6.87
2024-01-16T16:21:54.854Z,5.90
2024-01-16T16:24:23.269Z,4.90
2024-01-16T16:26:50.891Z,5.70
2024-01-16T16:29:20.429Z,7.00
2024-01-16T16:31:49.418Z,6.07
2024-01-16T16:34:18.241Z,6.80
2024-01-16T16:36:46.201Z,5.70
2024-01-16T16:39:17.740Z,5.23
2024-01-16T16:41:45.601Z,11.00
2024-01-16T16:44:13.419Z,9.40
2024-01-16T16:46:41.082Z,8.23
2024-01-16T16:49:10.786Z,7.27
2024-01-16T16:51:42.841Z,10.57
2024-01-16T16:54:10.737Z,9.70
2024-01-16T16:56:38.404Z,9.50
2024-01-16T16:59:08.382Z,10.73
2024-01-16T17:01:39.233Z,11.67
2024-01-16T17:04:07.752Z,8.60
2024-01-16T17:06:37.561Z,9.47
2024-01-16T17:09:07.502Z,12.07
2024-01-16T17:11:35.218Z,9.37
2024-01-16T17:14:03.374Z,9.13
2024-01-16T17:16:31.341Z,10.03
2024-01-16T17:18:58.960Z,12.67
2024-01-16T17:21:26.665Z,11.57
2024-01-16T17:23:55.970Z,9.17
2024-01-16T17:26:23.714Z,11.73
2024-01-16T17:28:51.285Z,11.50
2024-01-16T17:31:19.396Z,11.03
2024-01-16T17:33:47.092Z,10.83
2024-01-16T17:36:16.402Z,11.70
2024-01-16T17:38:45.346Z,13.43
2024-01-16T17:41:14.239Z,10.93
2024-01-16T17:43:43.913Z,12.37
2024-01-16T17:46:12.092Z,13.60
2024-01-16T17:48:41.265Z,11.17
2024-01-16T17:51:10.088Z,12.17
2024-01-16T17:53:37.662Z,14.10
2024-01-16T17:56:05.998Z,10.63
2024-01-16T17:58:35.227Z,11.40
2024-01-16T18:01:06.973Z,13.20
2024-01-16T18:03:41.505Z,15.57
2024-01-16T18:06:11.687Z,16.60
2024-01-16T18:08:39.912Z,15.30
2024-01-16T18:11:07.909Z,18.13
2024-01-16T18:13:38.612Z,18.10
2024-01-16T18:16:08.009Z,19.40
2024-01-16T18:18:37.629Z,21.23
2024-01-16T18:21:07.095Z,21.57
2024-01-16T18:23:35.736Z,24.70
2024-01-16T18:26:05.282Z,24.47
2024-01-16T18:28:33.249Z,21.73
2024-01-16T18:31:03.534Z,22.97
2024-01-16T18:33:31.783Z,26.13
2024-01-16T18:36:01.593Z,25.77
2024-01-16T18:38:29.669Z,28.90
2024-01-16T18:41:00.463Z,30.50
2024-01-16T18:43:28.953Z,29.73
2024-01-16T18:45:59.392Z,30.03
2024-01-16T18:48:30.553Z,34.57
2024-01-16T18:50:58.571Z,34.40
2024-01-16T18:53:28.554Z,35.37
2024-01-16T18:55:56.550Z,41.57
2024-01-16T18:58:24.106Z,33.07
2024-01-16T19:00:57.593Z,32.57
2024-01-16T19:05:57.447Z,33.60
2024-01-16T19:08:26.797Z,33.40
2024-01-16T19:10:54.989Z,35.17
2024-01-16T19:13:25.550Z,29.03
2024-01-16T19:15:53.804Z,32.67
2024-01-16T19:18:21.664Z,31.50
2024-01-16T19:20:50.688Z,31.87
2024-01-16T19:23:21.037Z,31.37
2024-01-16T19:25:48.976Z,31.37
2024-01-16T19:28:16.599Z,30.97
2024-01-16T19:30:44.794Z,31.33
2024-01-16T19:33:13.384Z,32.83
2024-01-16T19:35:41.206Z,31.37
2024-01-16T19:38:09.056Z,30.97
2024-01-16T19:40:38.185Z,31.70
2024-01-16T19:43:06.501Z,28.47
2024-01-16T19:45:34.151Z,37.20
2024-01-16T19:48:01.952Z,36.63
2024-01-16T19:50:30.099Z,34.97
2024-01-16T19:52:58.857Z,33.60
2024-01-16T19:55:30.330Z,33.90
2024-01-16T19:57:59.267Z,38.13
2024-01-16T20:00:27.340Z,34.03
2024-01-16T20:02:56.077Z,41.20
2024-01-16T20:05:24.099Z,30.63
2024-01-16T20:07:51.950Z,28.97
2024-01-16T20:10:19.599Z,30.97
2024-01-16T20:12:49.246Z,31.07
2024-01-16T20:15:19.553Z,29.13
2024-01-16T20:17:47.885Z,30.03
2024-01-16T20:20:16.808Z,27.70
2024-01-16T20:22:45.044Z,26.17
2024-01-16T20:25:19.670Z,25.00
2024-01-16T20:27:48.678Z,25.30
2024-01-16T20:30:16.948Z,29.30
2024-01-16T20:32:46.954Z,28.47
2024-01-16T20:35:15.265Z,25.60
2024-01-16T20:37:43.571Z,28.07
2024-01-16T20:40:14.690Z,26.53
2024-01-16T20:42:42.432Z,23.77
2024-01-16T20:45:11.193Z,25.40
2024-01-16T20:47:39.641Z,26.47
2024-01-16T20:50:10.507Z,22.50
2024-01-16T20:52:38.412Z,25.30
2024-01-16T20:55:08.508Z,27.77
2024-01-16T20:57:36.759Z,21.80
2024-01-16T21:00:14.303Z,26.97
2024-01-16T21:02:43.203Z,25.53
2024-01-16T21:05:12.581Z,26.43
2024-01-16T21:07:42.157Z,25.50
2024-01-16T21:10:10.916Z,23.50
2024-01-16T21:12:39.042Z,23.33
2024-01-16T21:15:07.488Z,23.60
2024-01-16T21:17:35.271Z,22.57
2024-01-16T21:20:06.958Z,23.77
2024-01-16T21:22:37.090Z,23.50
2024-01-16T21:25:06.716Z,22.20
2024-01-16T21:27:34.678Z,24.07
2024-01-16T21:30:03.556Z,25.43
2024-01-16T21:32:31.873Z,25.23
2024-01-16T21:34:59.904Z,27.50
2024-01-16T21:37:27.475Z,23.00
2024-01-16T21:39:56.640Z,28.43
2024-01-16T21:42:24.812Z,23.47
2024-01-16T21:44:53.815Z,24.50
2024-01-16T21:47:24.760Z,22.30
2024-01-16T21:49:52.901Z,22.83
2024-01-16T21:52:21.690Z,21.53
2024-01-16T21:54:49.803Z,23.07
2024-01-16T21:57:18.998Z,24.47
2024-01-16T21:59:46.939Z,23.43
2024-01-16T22:02:15.588Z,22.53
2024-01-16T22:04:43.231Z,23.00
2024-01-16T22:07:10.851Z,25.43
2024-01-16T22:09:39.205Z,23.97
2024-01-16T22:12:07.680Z,26.17
2024-01-16T22:14:38.278Z,24.87
2024-01-16T22:17:06.110Z,23.87
2024-01-16T22:19:33.787Z,23.37
2024-01-16T22:22:01.581Z,27.03
2024-01-16T22:24:29.305Z,24.20
2024-01-16T22:26:56.986Z,23.93
2024-01-16T22:29:24.733Z,24.90
2024-01-16T22:31:54.842Z,24.03
2024-01-16T22:34:23.558Z,26.97
2024-01-16T22:36:51.291Z,26.57
2024-01-16T22:39:19.181Z,24.33
2024-01-16T22:41:47.627Z,24.50
2024-01-16T22:44:15.750Z,24.33
2024-01-16T22:46:43.375Z,25.10
2024-01-16T22:49:12.866Z,22.40
2024-01-16T22:51:41.103Z,24.20
2024-01-16T22:54:08.811Z,26.03
2024-01-16T22:56:36.666Z,24.90
2024-01-16T22:59:05.390Z,23.53
2024-01-16T23:01:33.042Z,25.53
2024-01-16T23:04:02.152Z,26.60
2024-01-16T23:06:32.343Z,26.43
2024-01-16T23:09:01.322Z,23.07
2024-01-16T23:11:30.910Z,23.50
2024-01-16T23:14:01.295Z,27.47
2024-01-16T23:16:29.886Z,27.20
2024-01-16T23:18:58.307Z,24.87
2024-01-16T23:21:26.175Z,25.17
2024-01-16T23:23:55.347Z,24.33
2024-01-16T23:26:24.124Z,25.30
2024-01-16T23:28:52.988Z,26.00
2024-01-16T23:31:20.646Z,28.80
2024-01-16T23:33:48.543Z,23.93
2024-01-16T23:36:16.363Z,28.00
2024-01-16T23:38:44.505Z,25.47
2024-01-16T23:41:13.624Z,27.70
2024-01-16T23:43:43.301Z,22.30
2024-01-16T23:46:11.576Z,28.57
2024-01-16T23:48:39.386Z,26.60
2024-01-16T23:51:07.208Z,29.43
2024-01-16T23:53:35.381Z,29.97
2024-01-16T23:56:03.774Z,26.87
2024-01-16T23:58:32.828Z,24.67
